createdAt,value
2018-07-24T00:00:37.799Z,99.90
2018-07-24T00:05:40.877Z,99.90
2018-07-24T00:10:44.000Z,99.90
2018-07-24T00:15:47.072Z,99.90
2018-07-24T00:20:50.153Z,99.90
2018-07-24T00:25:53.183Z,99.90
2018-07-24T00:30:56.436Z,99.90
2018-07-24T00:35:59.528Z,99.90
2018-07-24T00:41:02.672Z,99.90
2018-07-24T00:46:05.824Z,99.90
2018-07-24T00:51:08.980Z,99.90
2018-07-24T00:56:12.192Z,99.90
2018-07-24T01:01:15.331Z,99.90
2018-07-24T01:06:18.486Z,99.90
2018-07-24T01:11:22.638Z,99.90
2018-07-24T01:16:26.293Z,99.90
2018-07-24T01:21:29.440Z,99.90
2018-07-24T01:26:32.640Z,99.90
2018-07-24T01:31:35.972Z,99.90
2018-07-24T01:36:39.056Z,99.90
2018-07-24T01:41:42.163Z,99.90
2018-07-24T01:46:45.471Z,99.90
2018-07-24T01:51:48.627Z,99.90
2018-07-24T01:56:51.712Z,99.90
2018-07-24T02:01:54.729Z,99.90
2018-07-24T02:06:57.785Z,99.90
2018-07-24T02:12:00.939Z,99.90
2018-07-24T02:17:04.072Z,99.90
2018-07-24T02:22:07.530Z,99.90
2018-07-24T02:27:11.968Z,99.90
2018-07-24T02:32:15.009Z,99.90
2018-07-24T02:37:18.127Z,99.90
2018-07-24T02:42:21.416Z,99.90
2018-07-24T02:47:24.493Z,99.90
2018-07-24T02:52:27.586Z,99.90
2018-07-24T02:57:30.644Z,99.90
2018-07-24T03:02:33.676Z,99.90
2018-07-24T03:07:36.800Z,99.90
2018-07-24T03:12:39.908Z,99.90
2018-07-24T03:17:42.983Z,99.90
2018-07-24T03:22:46.069Z,99.90
2018-07-24T03:27:49.168Z,99.90
2018-07-24T03:32:52.332Z,99.90
2018-07-24T03:37:55.389Z,99.90
2018-07-24T03:42:58.736Z,99.90
2018-07-24T03:48:01.854Z,99.90
2018-07-24T03:53:05.244Z,99.90
2018-07-24T03:58:08.355Z,99.90
2018-07-24T04:03:11.616Z,99.90
2018-07-24T04:08:14.667Z,99.90
2018-07-24T04:13:17.749Z,99.90
2018-07-24T04:18:20.808Z,99.90
2018-07-24T04:23:23.907Z,99.90
2018-07-24T04:28:27.030Z,99.90
2018-07-24T04:33:30.199Z,99.90
2018-07-24T04:38:33.448Z,99.90
2018-07-24T04:43:36.621Z,99.90
2018-07-24T04:48:39.642Z,99.90
2018-07-24T04:53:42.783Z,99.90
2018-07-24T04:58:45.825Z,99.90
2018-07-24T05:03:48.916Z,99.90
2018-07-24T05:08:51.974Z,99.90
2018-07-24T05:13:55.320Z,99.90
2018-07-24T05:18:58.381Z,99.90
2018-07-24T05:24:01.492Z,99.90
2018-07-24T05:29:04.645Z,99.90
2018-07-24T05:34:07.715Z,99.90
2018-07-24T05:39:12.231Z,99.90
2018-07-24T05:44:15.298Z,99.90
2018-07-24T05:54:21.248Z,99.90
2018-07-24T05:59:24.284Z,99.90
2018-07-24T06:04:27.404Z,99.90
2018-07-24T06:09:30.629Z,99.90
2018-07-24T06:14:33.783Z,99.90
2018-07-24T06:19:36.845Z,99.90
2018-07-24T06:24:39.884Z,99.90
2018-07-24T06:29:42.989Z,99.20
2018-07-24T06:34:46.023Z,97.20
2018-07-24T06:39:49.441Z,93.90
2018-07-24T06:44:52.651Z,93.10
2018-07-24T06:54:58.692Z,90.00
2018-07-24T07:00:01.781Z,89.20
2018-07-24T07:05:05.589Z,84.90
2018-07-24T07:10:09.167Z,84.00
2018-07-24T07:15:12.245Z,84.90
2018-07-24T07:20:15.535Z,85.70
2018-07-24T07:25:18.672Z,86.00
2018-07-24T07:30:21.826Z,85.60
2018-07-24T07:35:24.919Z,85.20
2018-07-24T07:40:28.031Z,81.30
2018-07-24T07:50:34.258Z,79.20
2018-07-24T07:55:37.407Z,75.70
2018-07-24T08:00:40.449Z,73.70
2018-07-24T08:05:43.538Z,69.90
2018-07-24T08:10:46.667Z,72.30
2018-07-24T08:15:50.108Z,75.20
2018-07-24T08:20:53.151Z,74.00
2018-07-24T08:25:56.277Z,72.40
2018-07-24T08:30:59.383Z,72.60
2018-07-24T08:36:02.529Z,72.00
2018-07-24T08:41:05.609Z,73.70
2018-07-24T08:46:09.176Z,73.30
2018-07-24T08:51:12.559Z,72.10
2018-07-24T08:56:15.830Z,72.30
2018-07-24T09:01:19.774Z,72.60
2018-07-24T09:06:23.045Z,75.00
2018-07-24T09:11:26.381Z,78.90
2018-07-24T09:16:29.448Z,81.10
2018-07-24T09:21:32.879Z,79.70
2018-07-24T09:26:36.824Z,80.30
2018-07-24T09:31:40.036Z,84.00
2018-07-24T09:36:43.180Z,82.40
2018-07-24T09:41:46.494Z,81.20
2018-07-24T09:46:49.869Z,82.40
2018-07-24T09:51:53.111Z,83.40
2018-07-24T09:56:56.176Z,81.80
2018-07-24T10:01:59.380Z,82.20
2018-07-24T10:12:05.767Z,82.40
2018-07-24T10:17:08.865Z,84.10
2018-07-24T10:22:12.197Z,84.90
2018-07-24T10:27:15.943Z,81.40
2018-07-24T10:32:19.004Z,85.40
2018-07-24T10:37:22.113Z,82.30
2018-07-24T10:42:25.273Z,83.00
2018-07-24T10:52:56.288Z,85.20
2018-07-24T10:57:59.387Z,83.10
2018-07-24T11:03:02.568Z,83.70
2018-07-24T11:08:06.133Z,84.60
2018-07-24T11:13:09.281Z,83.90
2018-07-24T11:18:12.865Z,82.90
2018-07-24T11:23:17.043Z,82.60
2018-07-24T11:28:20.048Z,82.50
2018-07-24T11:33:23.229Z,80.50
2018-07-24T11:38:26.443Z,80.90
2018-07-24T11:43:29.591Z,80.80
2018-07-24T11:48:32.669Z,82.80
2018-07-24T11:53:36.009Z,81.20
2018-07-24T11:58:39.278Z,81.40
2018-07-24T12:03:42.425Z,82.70
2018-07-24T12:08:45.586Z,81.90
2018-07-24T12:13:48.689Z,81.80
2018-07-24T12:18:51.757Z,81.00
2018-07-24T12:28:57.819Z,80.50
2018-07-24T12:34:00.876Z,80.20
2018-07-24T12:39:06.019Z,82.10
2018-07-24T12:44:09.088Z,83.80
2018-07-24T12:49:12.179Z,84.20
2018-07-24T12:54:15.237Z,83.20
2018-07-24T12:59:18.285Z,84.40
2018-07-24T13:04:21.350Z,83.30
2018-07-24T13:09:24.427Z,82.60
2018-07-24T13:14:27.496Z,83.70
2018-07-24T13:19:30.597Z,82.60
2018-07-24T13:24:33.702Z,87.20
2018-07-24T13:29:36.821Z,85.00
2018-07-24T13:34:40.074Z,84.40
2018-07-24T13:39:43.482Z,83.40
2018-07-24T13:44:46.702Z,83.90
2018-07-24T13:49:49.868Z,82.80
2018-07-24T13:54:52.989Z,82.80
2018-07-24T13:59:56.050Z,84.80
2018-07-24T14:04:59.112Z,82.80
2018-07-24T14:10:02.177Z,85.00
2018-07-24T14:15:06.393Z,82.70
2018-07-24T14:20:09.567Z,82.40
2018-07-24T14:25:12.634Z,82.10
2018-07-24T14:30:15.722Z,83.50
2018-07-24T14:35:18.800Z,83.60
2018-07-24T14:40:21.881Z,84.80
2018-07-24T14:45:25.974Z,84.60
2018-07-24T14:50:29.070Z,84.10
2018-07-24T14:55:32.116Z,84.30
2018-07-24T15:00:35.153Z,84.50
2018-07-24T15:05:38.206Z,85.10
2018-07-24T15:10:41.297Z,83.00
2018-07-24T15:15:44.356Z,86.20
2018-07-24T15:20:47.377Z,83.20
2018-07-24T15:25:50.407Z,82.00
2018-07-24T15:30:53.509Z,82.20
2018-07-24T15:35:56.667Z,81.70
2018-07-24T15:45:58.347Z,81.30
2018-07-24T15:51:01.400Z,82.20
2018-07-24T15:56:04.503Z,81.00
2018-07-24T16:01:07.504Z,80.50
2018-07-24T16:06:10.566Z,81.70
2018-07-24T16:11:13.582Z,80.60
2018-07-24T16:16:16.930Z,81.70
2018-07-24T16:21:20.002Z,83.60
2018-07-24T16:26:23.052Z,83.40
2018-07-24T16:31:26.097Z,82.70
2018-07-24T16:36:29.170Z,83.20
2018-07-24T16:41:32.205Z,82.30
2018-07-24T16:46:35.255Z,83.20
2018-07-24T16:51:38.306Z,81.70
2018-07-24T16:56:41.331Z,84.40
2018-07-24T17:01:50.994Z,83.00
2018-07-24T17:06:54.093Z,85.80
2018-07-24T17:11:57.181Z,84.30
2018-07-24T17:17:00.225Z,86.30
2018-07-24T17:22:03.313Z,84.30
2018-07-24T17:27:06.374Z,84.30
2018-07-24T17:32:09.526Z,87.10
2018-07-24T17:37:12.598Z,86.40
2018-07-24T17:42:15.713Z,86.70
2018-07-24T17:47:18.805Z,88.40
2018-07-24T17:52:21.875Z,88.80
2018-07-24T17:57:25.013Z,88.10
2018-07-24T18:02:28.129Z,88.60
2018-07-24T18:07:31.307Z,89.00
2018-07-24T18:12:34.340Z,89.40
2018-07-24T18:17:37.412Z,91.00
2018-07-24T18:22:40.610Z,90.60
2018-07-24T18:27:43.738Z,91.60
2018-07-24T18:32:46.904Z,92.80
2018-07-24T18:37:50.017Z,93.00
2018-07-24T18:42:53.136Z,94.40
2018-07-24T18:47:56.307Z,96.40
2018-07-24T18:52:59.391Z,98.70
2018-07-24T18:58:23.968Z,98.10
2018-07-24T19:03:27.197Z,99.40
2018-07-24T19:08:30.491Z,97.60
2018-07-24T19:18:37.658Z,99.90
2018-07-24T19:23:41.112Z,99.90
2018-07-24T19:28:44.277Z,99.90
2018-07-24T19:33:47.391Z,99.90
2018-07-24T19:38:50.548Z,99.90
2018-07-24T19:43:53.681Z,99.90
2018-07-24T19:48:56.782Z,99.90
2018-07-24T19:54:00.524Z,99.90
2018-07-24T19:59:03.766Z,99.90
2018-07-24T20:04:06.816Z,99.90
2018-07-24T20:09:11.215Z,99.90
2018-07-24T20:14:14.400Z,99.90
2018-07-24T20:19:17.505Z,99.90
2018-07-24T20:24:22.293Z,99.90
2018-07-24T20:29:25.356Z,99.90
2018-07-24T20:34:28.441Z,99.90
2018-07-24T20:39:32.614Z,99.90
2018-07-24T20:44:50.876Z,99.90
2018-07-24T20:49:53.958Z,99.90
2018-07-24T20:54:57.064Z,99.90
2018-07-24T21:00:00.258Z,99.90
2018-07-24T21:05:03.414Z,99.90
2018-07-24T21:10:10.788Z,99.90
2018-07-24T21:15:13.984Z,99.90
2018-07-24T21:20:17.104Z,99.90
2018-07-24T21:25:20.208Z,99.90
2018-07-24T21:30:23.276Z,99.90
2018-07-24T21:35:26.421Z,99.90
2018-07-24T21:40:29.635Z,99.90
2018-07-24T21:45:32.796Z,99.90
2018-07-24T21:50:35.937Z,99.90
2018-07-24T21:55:39.128Z,99.90
2018-07-24T22:00:42.247Z,99.90
2018-07-24T22:05:45.357Z,99.90
2018-07-24T22:10:48.467Z,99.90
2018-07-24T22:15:51.582Z,99.90
2018-07-24T22:20:55.763Z,99.90
2018-07-24T22:25:58.906Z,99.90
2018-07-24T22:31:01.981Z,99.90
2018-07-24T22:36:05.229Z,99.90
2018-07-24T22:41:08.330Z,99.90
2018-07-24T22:46:12.549Z,99.90
2018-07-24T22:51:15.725Z,99.90
2018-07-24T22:56:18.769Z,99.90
2018-07-24T23:01:23.878Z,99.90
2018-07-24T23:06:27.033Z,99.90
2018-07-24T23:11:30.123Z,99.90
2018-07-24T23:16:33.169Z,99.90
2018-07-24T23:21:36.310Z,99.90
2018-07-24T23:26:39.436Z,99.90
2018-07-24T23:31:42.464Z,99.90
2018-07-24T23:36:45.534Z,99.90
2018-07-24T23:41:48.589Z,99.90
2018-07-24T23:46:51.764Z,99.90
2018-07-24T23:51:54.747Z,99.90
2018-07-24T23:56:57.909Z,99.90
